Forside
METAR-TAF:

METAR-TAF

Lufthavne :

Chhatrapati Shivaji International Airport

Mumbai, Indien

Breddekreds: 19-07N, længdekreds: 072-51E, højde: 8 m

Aktuelle vejr

Denne rapport blev lavet for 21 minutter siden, kl. 08:30 UTC
Vind 6 kt fra sydsydvest
Temperatur 36°C
Fugtighed 13%
Tryk 1011 hPa
Sigt: 3000 m
røg

METAR: VABB 270830Z 21006KT 3000 FU NSC 36/03 Q1011 BECMG 4000 FU

Tid: 14:21 (08:51 UTC)

Vejrudsigter

Denne rapport blev lavet for 51 minutter siden, kl. 08:00 UTC
Foreløbig gælder fra 27 på 09 UTC til 27 på 18 UTC
Vind 10 kt fra vestnordvest
Sigt: 4000 m
røg
ændring
fra 27 på 13 UTC til 27 på 15 UTC
Vind 6 kt fra nord
Sigt: 3000 m
røg

TAF: VABB 270800Z 2709/2718 29010KT 4000 FU NSC BECMG 2713/2715 35006KT 3000 FU

Vejrobservationer og prognoser fra mere end 4000 lufthavne (METAR og TAF).

De gule og røde prikker repræsenterer de meteorologiske stationer.

Flyt musen over at se navnet på stationen.

Så klik over at se vejr observationer og prognoser.

At skifte det kort: Klik på de grønne knapper med et sort kors for at zoome ind; på den grønne knap med en bindestreg for at zoome ud; eller på de grønne pile for tilstødende kort.


METAR-TAF: